sensor_id;sensor_type;location;lat;lon;timestamp;P1;durP1;ratioP1;P2;durP2;ratioP2
75986;SDS011;64671;44.726;37.764;2022-12-10T00:01:18;5.57;;;4.18;;
75986;SDS011;64671;44.726;37.764;2022-12-10T00:03:22;5.97;;;5.30;;
75986;SDS011;64671;44.726;37.764;2022-12-10T00:04:23;5.63;;;4.93;;
75986;SDS011;64671;44.726;37.764;2022-12-10T00:05:25;5.97;;;5.15;;
75986;SDS011;64671;44.726;37.764;2022-12-10T00:06:27;6.30;;;4.90;;
75986;SDS011;64671;44.726;37.764;2022-12-10T00:07:30;4.93;;;4.43;;
75986;SDS011;64671;44.726;37.764;2022-12-10T00:08:32;6.15;;;4.95;;
75986;SDS011;64671;44.726;37.764;2022-12-10T00:09:34;5.45;;;4.90;;
75986;SDS011;64671;44.726;37.764;2022-12-10T00:15:22;6.80;;;4.85;;
75986;SDS011;64671;44.726;37.764;2022-12-10T00:16:24;6.47;;;4.10;;
75986;SDS011;64671;44.726;37.764;2022-12-10T00:17:27;4.90;;;4.50;;
75986;SDS011;64671;44.726;37.764;2022-12-10T00:18:28;4.65;;;3.92;;
75986;SDS011;64671;44.726;37.764;2022-12-10T00:19:30;5.00;;;4.03;;
75986;SDS011;64671;44.726;37.764;2022-12-10T00:20:31;5.75;;;4.10;;
75986;SDS011;64671;44.726;37.764;2022-12-10T00:21:33;5.20;;;4.05;;
75986;SDS011;64671;44.726;37.764;2022-12-10T00:22:36;6.32;;;4.75;;
75986;SDS011;64671;44.726;37.764;2022-12-10T00:23:37;5.75;;;5.10;;
75986;SDS011;64671;44.726;37.764;2022-12-10T00:24:39;5.45;;;4.95;;
75986;SDS011;64671;44.726;37.764;2022-12-10T00:25:41;4.82;;;4.28;;
75986;SDS011;64671;44.726;37.764;2022-12-10T00:26:42;4.80;;;4.18;;
75986;SDS011;64671;44.726;37.764;2022-12-10T00:28:45;5.95;;;4.60;;
75986;SDS011;64671;44.726;37.764;2022-12-10T00:30:42;5.63;;;4.13;;
75986;SDS011;64671;44.726;37.764;2022-12-10T00:31:44;6.22;;;4.30;;
75986;SDS011;64671;44.726;37.764;2022-12-10T00:34:22;5.80;;;4.07;;
75986;SDS011;64671;44.726;37.764;2022-12-10T00:35:23;6.40;;;5.07;;
75986;SDS011;64671;44.726;37.764;2022-12-10T00:36:28;5.18;;;4.32;;
75986;SDS011;64671;44.726;37.764;2022-12-10T00:37:32;5.90;;;5.25;;
75986;SDS011;64671;44.726;37.764;2022-12-10T00:38:34;5.30;;;4.80;;
75986;SDS011;64671;44.726;37.764;2022-12-10T00:39:36;5.97;;;4.20;;
75986;SDS011;64671;44.726;37.764;2022-12-10T00:40:37;6.40;;;4.95;;
75986;SDS011;64671;44.726;37.764;2022-12-10T00:41:39;5.80;;;4.70;;
75986;SDS011;64671;44.726;37.764;2022-12-10T00:42:40;5.88;;;4.28;;
75986;SDS011;64671;44.726;37.764;2022-12-10T00:43:42;6.70;;;4.38;;
75986;SDS011;64671;44.726;37.764;2022-12-10T00:44:45;4.82;;;4.35;;
75986;SDS011;64671;44.726;37.764;2022-12-10T00:45:46;5.50;;;4.10;;
75986;SDS011;64671;44.726;37.764;2022-12-10T00:46:47;5.40;;;4.40;;
75986;SDS011;64671;44.726;37.764;2022-12-10T00:47:49;5.63;;;4.28;;
75986;SDS011;64671;44.726;37.764;2022-12-10T00:48:50;4.70;;;4.05;;
75986;SDS011;64671;44.726;37.764;2022-12-10T00:49:53;6.22;;;4.57;;
75986;SDS011;64671;44.726;37.764;2022-12-10T00:50:59;5.18;;;4.30;;
75986;SDS011;64671;44.726;37.764;2022-12-10T00:53:05;6.82;;;4.20;;
75986;SDS011;64671;44.726;37.764;2022-12-10T00:54:54;4.97;;;4.47;;
75986;SDS011;64671;44.726;37.764;2022-12-10T00:55:56;4.95;;;4.10;;
75986;SDS011;64671;44.726;37.764;2022-12-10T00:56:57;5.47;;;4.40;;
75986;SDS011;64671;44.726;37.764;2022-12-10T00:58:55;5.32;;;4.82;;
75986;SDS011;64671;44.726;37.764;2022-12-10T00:59:57;5.18;;;4.38;;
75986;SDS011;64671;44.726;37.764;2022-12-10T01:01:08;5.15;;;4.55;;
75986;SDS011;64671;44.726;37.764;2022-12-10T01:02:21;5.95;;;5.03;;
75986;SDS011;64671;44.726;37.764;2022-12-10T01:03:24;5.80;;;4.50;;
75986;SDS011;64671;44.726;37.764;2022-12-10T01:04:25;4.85;;;4.35;;
75986;SDS011;64671;44.726;37.764;2022-12-10T01:05:26;5.18;;;4.68;;
75986;SDS011;64671;44.726;37.764;2022-12-10T01:06:29;5.22;;;4.72;;
75986;SDS011;64671;44.726;37.764;2022-12-10T01:07:32;5.78;;;4.72;;
75986;SDS011;64671;44.726;37.764;2022-12-10T01:08:33;5.95;;;4.95;;
75986;SDS011;64671;44.726;37.764;2022-12-10T01:10:23;5.10;;;4.28;;
75986;SDS011;64671;44.726;37.764;2022-12-10T01:12:49;4.55;;;3.92;;
75986;SDS011;64671;44.726;37.764;2022-12-10T01:13:51;4.97;;;4.15;;
75986;SDS011;64671;44.726;37.764;2022-12-10T01:14:53;4.50;;;3.97;;
75986;SDS011;64671;44.726;37.764;2022-12-10T01:15:54;5.38;;;4.28;;
75986;SDS011;64671;44.726;37.764;2022-12-10T01:16:57;5.97;;;4.38;;
75986;SDS011;64671;44.726;37.764;2022-12-10T01:18:03;5.43;;;4.20;;
75986;SDS011;64671;44.726;37.764;2022-12-10T01:20:09;5.72;;;4.15;;
75986;SDS011;64671;44.726;37.764;2022-12-10T01:21:11;5.15;;;4.28;;
75986;SDS011;64671;44.726;37.764;2022-12-10T01:23:11;5.55;;;4.40;;
75986;SDS011;64671;44.726;37.764;2022-12-10T01:24:12;5.13;;;4.10;;
75986;SDS011;64671;44.726;37.764;2022-12-10T01:26:03;5.63;;;4.20;;
75986;SDS011;64671;44.726;37.764;2022-12-10T01:27:08;5.07;;;4.13;;
75986;SDS011;64671;44.726;37.764;2022-12-10T01:28:10;4.50;;;3.97;;
75986;SDS011;64671;44.726;37.764;2022-12-10T01:30:14;5.93;;;4.43;;
75986;SDS011;64671;44.726;37.764;2022-12-10T01:32:19;5.35;;;4.20;;
75986;SDS011;64671;44.726;37.764;2022-12-10T01:33:20;5.78;;;4.50;;
75986;SDS011;64671;44.726;37.764;2022-12-10T01:35:10;4.47;;;4.00;;
75986;SDS011;64671;44.726;37.764;2022-12-10T01:36:12;5.25;;;3.97;;
75986;SDS011;64671;44.726;37.764;2022-12-10T01:37:19;5.57;;;3.97;;
75986;SDS011;64671;44.726;37.764;2022-12-10T01:38:20;4.70;;;3.70;;
75986;SDS011;64671;44.726;37.764;2022-12-10T01:39:23;6.80;;;5.10;;
75986;SDS011;64671;44.726;37.764;2022-12-10T01:40:24;4.10;;;3.70;;
75986;SDS011;64671;44.726;37.764;2022-12-10T01:41:27;5.05;;;4.13;;
75986;SDS011;64671;44.726;37.764;2022-12-10T01:43:22;5.65;;;5.05;;
75986;SDS011;64671;44.726;37.764;2022-12-10T01:45:25;6.03;;;4.43;;
75986;SDS011;64671;44.726;37.764;2022-12-10T01:46:27;5.40;;;4.40;;
75986;SDS011;64671;44.726;37.764;2022-12-10T01:47:30;4.50;;;4.10;;
75986;SDS011;64671;44.726;37.764;2022-12-10T01:48:33;4.72;;;4.28;;
75986;SDS011;64671;44.726;37.764;2022-12-10T01:49:35;5.35;;;4.60;;
75986;SDS011;64671;44.726;37.764;2022-12-10T01:50:38;4.97;;;4.45;;
75986;SDS011;64671;44.726;37.764;2022-12-10T01:51:40;5.10;;;4.60;;
75986;SDS011;64671;44.726;37.764;2022-12-10T01:52:43;4.85;;;4.35;;
75986;SDS011;64671;44.726;37.764;2022-12-10T01:54:46;5.88;;;4.40;;
75986;SDS011;64671;44.726;37.764;2022-12-10T01:55:49;6.10;;;4.47;;
75986;SDS011;64671;44.726;37.764;2022-12-10T01:56:54;5.35;;;4.53;;
75986;SDS011;64671;44.726;37.764;2022-12-10T01:58:01;4.80;;;4.35;;
75986;SDS011;64671;44.726;37.764;2022-12-10T01:59:03;5.18;;;4.55;;
75986;SDS011;64671;44.726;37.764;2022-12-10T02:00:06;5.15;;;4.65;;
75986;SDS011;64671;44.726;37.764;2022-12-10T02:02:58;5.40;;;4.85;;
75986;SDS011;64671;44.726;37.764;2022-12-10T02:04:19;5.10;;;4.03;;
75986;SDS011;64671;44.726;37.764;2022-12-10T02:08:01;5.95;;;4.10;;
75986;SDS011;64671;44.726;37.764;2022-12-10T02:09:34;5.65;;;4.43;;
75986;SDS011;64671;44.726;37.764;2022-12-10T02:16:02;4.88;;;3.50;;
75986;SDS011;64671;44.726;37.764;2022-12-10T02:17:11;5.05;;;3.55;;
75986;SDS011;64671;44.726;37.764;2022-12-10T02:20:21;4.25;;;3.70;;
75986;SDS011;64671;44.726;37.764;2022-12-10T02:21:38;4.80;;;4.15;;
75986;SDS011;64671;44.726;37.764;2022-12-10T02:22:49;4.65;;;3.53;;
75986;SDS011;64671;44.726;37.764;2022-12-10T02:24:42;5.05;;;3.53;;
75986;SDS011;64671;44.726;37.764;2022-12-10T02:25:49;4.88;;;3.83;;
75986;SDS011;64671;44.726;37.764;2022-12-10T02:29:12;5.38;;;4.00;;
75986;SDS011;64671;44.726;37.764;2022-12-10T02:30:19;4.82;;;3.90;;
75986;SDS011;64671;44.726;37.764;2022-12-10T02:32:16;4.85;;;4.35;;
75986;SDS011;64671;44.726;37.764;2022-12-10T02:34:25;5.28;;;4.78;;
75986;SDS011;64671;44.726;37.764;2022-12-10T02:35:31;5.07;;;4.45;;
75986;SDS011;64671;44.726;37.764;2022-12-10T02:36:37;4.43;;;4.03;;
75986;SDS011;64671;44.726;37.764;2022-12-10T02:37:45;5.22;;;4.40;;
75986;SDS011;64671;44.726;37.764;2022-12-10T02:38:50;5.05;;;4.55;;
75986;SDS011;64671;44.726;37.764;2022-12-10T02:39:55;5.05;;;3.88;;
75986;SDS011;64671;44.726;37.764;2022-12-10T02:41:51;4.20;;;3.78;;
75986;SDS011;64671;44.726;37.764;2022-12-10T02:42:55;4.38;;;3.97;;
75986;SDS011;64671;44.726;37.764;2022-12-10T02:43:58;4.80;;;4.03;;
75986;SDS011;64671;44.726;37.764;2022-12-10T02:45:05;4.40;;;3.55;;
75986;SDS011;64671;44.726;37.764;2022-12-10T02:46:09;4.35;;;3.58;;
75986;SDS011;64671;44.726;37.764;2022-12-10T02:48:16;4.20;;;3.70;;
75986;SDS011;64671;44.726;37.764;2022-12-10T02:49:19;3.97;;;3.55;;
75986;SDS011;64671;44.726;37.764;2022-12-10T02:50:23;5.32;;;3.97;;
75986;SDS011;64671;44.726;37.764;2022-12-10T02:51:25;4.47;;;3.58;;
75986;SDS011;64671;44.726;37.764;2022-12-10T02:52:26;4.68;;;4.22;;
75986;SDS011;64671;44.726;37.764;2022-12-10T02:53:28;4.55;;;4.03;;
75986;SDS011;64671;44.726;37.764;2022-12-10T03:00:09;4.43;;;3.00;;
75986;SDS011;64671;44.726;37.764;2022-12-10T03:07:18;4.47;;;3.75;;
75986;SDS011;64671;44.726;37.764;2022-12-10T03:09:53;5.90;;;3.83;;
75986;SDS011;64671;44.726;37.764;2022-12-10T03:12:41;5.40;;;4.10;;
75986;SDS011;64671;44.726;37.764;2022-12-10T03:14:35;4.97;;;3.97;;
75986;SDS011;64671;44.726;37.764;2022-12-10T03:15:38;4.80;;;3.88;;
75986;SDS011;64671;44.726;37.764;2022-12-10T03:17:38;4.45;;;3.75;;
75986;SDS011;64671;44.726;37.764;2022-12-10T03:18:42;5.22;;;3.50;;
75986;SDS011;64671;44.726;37.764;2022-12-10T03:19:51;4.20;;;3.45;;
75986;SDS011;64671;44.726;37.764;2022-12-10T03:22:40;4.50;;;3.45;;
75986;SDS011;64671;44.726;37.764;2022-12-10T03:23:46;4.57;;;3.47;;
75986;SDS011;64671;44.726;37.764;2022-12-10T03:24:49;4.95;;;3.38;;
75986;SDS011;64671;44.726;37.764;2022-12-10T03:25:52;4.32;;;3.90;;
75986;SDS011;64671;44.726;37.764;2022-12-10T03:26:54;4.63;;;4.03;;
75986;SDS011;64671;44.726;37.764;2022-12-10T03:27:58;4.78;;;3.35;;
75986;SDS011;64671;44.726;37.764;2022-12-10T03:29:03;6.40;;;3.83;;
75986;SDS011;64671;44.726;37.764;2022-12-10T03:32:04;4.35;;;3.53;;
75986;SDS011;64671;44.726;37.764;2022-12-10T03:33:06;5.43;;;3.28;;
75986;SDS011;64671;44.726;37.764;2022-12-10T03:34:09;4.85;;;3.45;;
75986;SDS011;64671;44.726;37.764;2022-12-10T03:35:11;4.45;;;3.20;;
75986;SDS011;64671;44.726;37.764;2022-12-10T03:36:16;5.72;;;4.15;;
75986;SDS011;64671;44.726;37.764;2022-12-10T03:37:19;4.32;;;3.17;;
75986;SDS011;64671;44.726;37.764;2022-12-10T03:38:22;4.43;;;3.63;;
75986;SDS011;64671;44.726;37.764;2022-12-10T03:40:24;4.18;;;3.70;;
75986;SDS011;64671;44.726;37.764;2022-12-10T03:41:27;4.30;;;3.75;;
75986;SDS011;64671;44.726;37.764;2022-12-10T03:43:29;3.88;;;3.45;;
75986;SDS011;64671;44.726;37.764;2022-12-10T03:45:26;4.63;;;4.15;;
75986;SDS011;64671;44.726;37.764;2022-12-10T03:46:29;4.47;;;4.07;;
75986;SDS011;64671;44.726;37.764;2022-12-10T03:47:31;4.50;;;3.70;;
75986;SDS011;64671;44.726;37.764;2022-12-10T03:48:58;4.80;;;4.30;;
75986;SDS011;64671;44.726;37.764;2022-12-10T03:50:01;4.28;;;3.88;;
75986;SDS011;64671;44.726;37.764;2022-12-10T03:51:09;5.85;;;4.72;;
75986;SDS011;64671;44.726;37.764;2022-12-10T03:52:11;4.07;;;3.67;;
75986;SDS011;64671;44.726;37.764;2022-12-10T03:53:12;5.07;;;4.10;;
75986;SDS011;64671;44.726;37.764;2022-12-10T03:54:14;5.10;;;3.55;;
75986;SDS011;64671;44.726;37.764;2022-12-10T03:55:15;4.70;;;4.22;;
75986;SDS011;64671;44.726;37.764;2022-12-10T03:56:17;4.70;;;4.25;;
75986;SDS011;64671;44.726;37.764;2022-12-10T03:57:20;5.35;;;3.95;;
75986;SDS011;64671;44.726;37.764;2022-12-10T03:58:21;5.30;;;4.03;;
75986;SDS011;64671;44.726;37.764;2022-12-10T03:59:22;5.13;;;4.15;;
75986;SDS011;64671;44.726;37.764;2022-12-10T04:00:24;4.90;;;4.32;;
75986;SDS011;64671;44.726;37.764;2022-12-10T04:02:26;6.70;;;4.28;;
75986;SDS011;64671;44.726;37.764;2022-12-10T04:03:28;5.15;;;4.07;;
75986;SDS011;64671;44.726;37.764;2022-12-10T04:05:31;5.03;;;4.18;;
75986;SDS011;64671;44.726;37.764;2022-12-10T04:07:21;5.32;;;3.55;;
75986;SDS011;64671;44.726;37.764;2022-12-10T04:08:22;6.70;;;3.80;;
75986;SDS011;64671;44.726;37.764;2022-12-10T04:09:23;6.97;;;4.03;;
75986;SDS011;64671;44.726;37.764;2022-12-10T04:10:25;5.85;;;3.75;;
75986;SDS011;64671;44.726;37.764;2022-12-10T04:11:26;4.15;;;3.30;;
75986;SDS011;64671;44.726;37.764;2022-12-10T04:12:27;4.72;;;3.65;;
75986;SDS011;64671;44.726;37.764;2022-12-10T04:13:30;5.35;;;3.65;;
75986;SDS011;64671;44.726;37.764;2022-12-10T04:14:52;5.25;;;3.75;;
75986;SDS011;64671;44.726;37.764;2022-12-10T04:16:19;4.47;;;3.75;;
75986;SDS011;64671;44.726;37.764;2022-12-10T04:17:27;3.92;;;3.47;;
75986;SDS011;64671;44.726;37.764;2022-12-10T04:18:28;6.65;;;3.60;;
75986;SDS011;64671;44.726;37.764;2022-12-10T04:19:29;6.55;;;3.67;;
75986;SDS011;64671;44.726;37.764;2022-12-10T04:20:31;4.00;;;3.60;;
75986;SDS011;64671;44.726;37.764;2022-12-10T04:21:51;4.43;;;3.47;;
75986;SDS011;64671;44.726;37.764;2022-12-10T04:23:11;4.88;;;3.83;;
75986;SDS011;64671;44.726;37.764;2022-12-10T04:24:35;6.22;;;3.20;;
75986;SDS011;64671;44.726;37.764;2022-12-10T04:25:56;4.57;;;3.67;;
75986;SDS011;64671;44.726;37.764;2022-12-10T04:27:32;3.85;;;3.35;;
75986;SDS011;64671;44.726;37.764;2022-12-10T04:29:28;3.70;;;3.15;;
75986;SDS011;64671;44.726;37.764;2022-12-10T04:30:30;4.13;;;3.65;;
75986;SDS011;64671;44.726;37.764;2022-12-10T04:31:32;5.50;;;3.80;;
75986;SDS011;64671;44.726;37.764;2022-12-10T04:33:29;4.00;;;3.35;;
75986;SDS011;64671;44.726;37.764;2022-12-10T04:36:19;5.07;;;3.22;;
75986;SDS011;64671;44.726;37.764;2022-12-10T04:37:21;4.57;;;3.50;;
75986;SDS011;64671;44.726;37.764;2022-12-10T04:38:23;4.15;;;2.97;;
75986;SDS011;64671;44.726;37.764;2022-12-10T04:40:12;5.05;;;4.05;;
75986;SDS011;64671;44.726;37.764;2022-12-10T04:41:13;4.68;;;3.67;;
75986;SDS011;64671;44.726;37.764;2022-12-10T04:42:16;4.75;;;3.67;;
75986;SDS011;64671;44.726;37.764;2022-12-10T04:43:18;3.97;;;3.50;;
75986;SDS011;64671;44.726;37.764;2022-12-10T04:44:19;4.00;;;3.50;;
75986;SDS011;64671;44.726;37.764;2022-12-10T04:45:20;5.82;;;3.92;;
75986;SDS011;64671;44.726;37.764;2022-12-10T04:46:23;4.22;;;3.35;;
75986;SDS011;64671;44.726;37.764;2022-12-10T04:48:16;3.15;;;2.85;;
75986;SDS011;64671;44.726;37.764;2022-12-10T04:49:17;3.50;;;2.88;;
75986;SDS011;64671;44.726;37.764;2022-12-10T04:51:20;3.63;;;2.72;;
75986;SDS011;64671;44.726;37.764;2022-12-10T04:53:22;3.67;;;3.08;;
75986;SDS011;64671;44.726;37.764;2022-12-10T04:54:23;3.65;;;3.08;;
75986;SDS011;64671;44.726;37.764;2022-12-10T04:56:13;3.95;;;2.72;;
75986;SDS011;64671;44.726;37.764;2022-12-10T04:58:16;5.57;;;3.10;;
75986;SDS011;64671;44.726;37.764;2022-12-10T04:59:17;3.47;;;2.80;;
75986;SDS011;64671;44.726;37.764;2022-12-10T05:00:20;3.25;;;2.65;;
75986;SDS011;64671;44.726;37.764;2022-12-10T05:01:21;4.55;;;3.45;;
75986;SDS011;64671;44.726;37.764;2022-12-10T05:02:30;4.38;;;3.47;;
75986;SDS011;64671;44.726;37.764;2022-12-10T05:03:32;3.42;;;2.70;;
75986;SDS011;64671;44.726;37.764;2022-12-10T05:04:35;3.90;;;3.08;;
75986;SDS011;64671;44.726;37.764;2022-12-10T05:05:36;5.38;;;3.03;;
75986;SDS011;64671;44.726;37.764;2022-12-10T05:06:37;4.18;;;2.90;;
75986;SDS011;64671;44.726;37.764;2022-12-10T05:07:39;4.35;;;2.92;;
75986;SDS011;64671;44.726;37.764;2022-12-10T05:08:41;4.90;;;2.97;;
75986;SDS011;64671;44.726;37.764;2022-12-10T05:09:42;5.03;;;3.40;;
75986;SDS011;64671;44.726;37.764;2022-12-10T05:10:43;4.25;;;3.33;;
75986;SDS011;64671;44.726;37.764;2022-12-10T05:11:45;4.55;;;3.42;;
75986;SDS011;64671;44.726;37.764;2022-12-10T05:13:48;3.10;;;2.70;;
75986;SDS011;64671;44.726;37.764;2022-12-10T05:14:49;3.63;;;3.03;;
75986;SDS011;64671;44.726;37.764;2022-12-10T05:15:51;5.30;;;2.97;;
75986;SDS011;64671;44.726;37.764;2022-12-10T05:16:52;3.20;;;2.90;;
75986;SDS011;64671;44.726;37.764;2022-12-10T05:17:54;4.70;;;3.00;;
75986;SDS011;64671;44.726;37.764;2022-12-10T05:18:55;3.40;;;2.95;;
75986;SDS011;64671;44.726;37.764;2022-12-10T05:19:57;3.83;;;2.92;;
75986;SDS011;64671;44.726;37.764;2022-12-10T05:20:58;4.28;;;3.20;;
75986;SDS011;64671;44.726;37.764;2022-12-10T05:22:01;4.32;;;3.15;;
75986;SDS011;64671;44.726;37.764;2022-12-10T05:23:21;4.60;;;2.85;;
75986;SDS011;64671;44.726;37.764;2022-12-10T05:24:31;4.20;;;3.03;;
75986;SDS011;64671;44.726;37.764;2022-12-10T05:25:32;3.90;;;2.70;;
75986;SDS011;64671;44.726;37.764;2022-12-10T05:26:53;4.72;;;3.10;;
75986;SDS011;64671;44.726;37.764;2022-12-10T05:27:54;4.45;;;3.25;;
75986;SDS011;64671;44.726;37.764;2022-12-10T05:28:55;3.25;;;2.67;;
75986;SDS011;64671;44.726;37.764;2022-12-10T05:30:58;3.53;;;3.20;;
75986;SDS011;64671;44.726;37.764;2022-12-10T05:32:00;3.80;;;2.83;;
75986;SDS011;64671;44.726;37.764;2022-12-10T05:33:03;3.92;;;2.65;;
75986;SDS011;64671;44.726;37.764;2022-12-10T05:34:05;3.97;;;2.70;;
75986;SDS011;64671;44.726;37.764;2022-12-10T05:35:08;3.40;;;3.08;;
75986;SDS011;64671;44.726;37.764;2022-12-10T05:36:10;4.10;;;2.85;;
75986;SDS011;64671;44.726;37.764;2022-12-10T05:37:13;3.13;;;2.72;;
75986;SDS011;64671;44.726;37.764;2022-12-10T05:38:15;3.47;;;2.70;;
75986;SDS011;64671;44.726;37.764;2022-12-10T05:39:16;3.53;;;2.78;;
75986;SDS011;64671;44.726;37.764;2022-12-10T05:40:17;4.05;;;3.03;;
75986;SDS011;64671;44.726;37.764;2022-12-10T05:41:20;3.53;;;2.70;;
75986;SDS011;64671;44.726;37.764;2022-12-10T05:42:23;3.40;;;2.63;;
75986;SDS011;64671;44.726;37.764;2022-12-10T05:43:24;4.25;;;3.17;;
75986;SDS011;64671;44.726;37.764;2022-12-10T05:44:25;3.53;;;3.00;;
75986;SDS011;64671;44.726;37.764;2022-12-10T05:45:27;4.18;;;2.85;;
75986;SDS011;64671;44.726;37.764;2022-12-10T05:46:29;4.28;;;3.20;;
75986;SDS011;64671;44.726;37.764;2022-12-10T05:47:39;3.10;;;2.80;;
75986;SDS011;64671;44.726;37.764;2022-12-10T05:48:40;3.65;;;2.90;;
75986;SDS011;64671;44.726;37.764;2022-12-10T05:49:42;4.13;;;3.00;;
75986;SDS011;64671;44.726;37.764;2022-12-10T05:50:43;3.05;;;2.75;;
75986;SDS011;64671;44.726;37.764;2022-12-10T05:51:44;3.72;;;2.90;;
75986;SDS011;64671;44.726;37.764;2022-12-10T05:52:45;3.63;;;2.90;;
75986;SDS011;64671;44.726;37.764;2022-12-10T05:53:47;5.10;;;2.90;;
75986;SDS011;64671;44.726;37.764;2022-12-10T05:54:48;3.30;;;3.00;;
75986;SDS011;64671;44.726;37.764;2022-12-10T05:55:56;3.35;;;2.78;;
75986;SDS011;64671;44.726;37.764;2022-12-10T05:57:01;3.35;;;2.92;;
75986;SDS011;64671;44.726;37.764;2022-12-10T05:58:02;4.50;;;2.83;;
75986;SDS011;64671;44.726;37.764;2022-12-10T05:59:04;3.83;;;2.70;;
75986;SDS011;64671;44.726;37.764;2022-12-10T06:00:06;4.72;;;3.10;;
75986;SDS011;64671;44.726;37.764;2022-12-10T06:01:17;3.70;;;3.15;;
75986;SDS011;64671;44.726;37.764;2022-12-10T06:02:20;3.63;;;2.90;;
75986;SDS011;64671;44.726;37.764;2022-12-10T06:03:22;4.15;;;2.65;;
75986;SDS011;64671;44.726;37.764;2022-12-10T06:04:23;3.38;;;2.80;;
75986;SDS011;64671;44.726;37.764;2022-12-10T06:05:25;5.05;;;2.90;;
75986;SDS011;64671;44.726;37.764;2022-12-10T06:06:31;4.30;;;3.05;;
75986;SDS011;64671;44.726;37.764;2022-12-10T06:07:36;3.20;;;2.70;;
75986;SDS011;64671;44.726;37.764;2022-12-10T06:08:38;4.90;;;3.10;;
75986;SDS011;64671;44.726;37.764;2022-12-10T06:09:41;3.10;;;2.80;;
75986;SDS011;64671;44.726;37.764;2022-12-10T06:10:43;4.30;;;3.10;;
75986;SDS011;64671;44.726;37.764;2022-12-10T06:12:45;3.58;;;2.88;;
75986;SDS011;64671;44.726;37.764;2022-12-10T06:13:47;4.22;;;2.85;;
75986;SDS011;64671;44.726;37.764;2022-12-10T06:15:52;2.60;;;2.38;;
75986;SDS011;64671;44.726;37.764;2022-12-10T06:16:54;4.65;;;3.58;;
75986;SDS011;64671;44.726;37.764;2022-12-10T06:17:55;3.22;;;2.60;;
75986;SDS011;64671;44.726;37.764;2022-12-10T06:18:57;3.88;;;2.78;;
75986;SDS011;64671;44.726;37.764;2022-12-10T06:20:04;4.03;;;2.78;;
75986;SDS011;64671;44.726;37.764;2022-12-10T06:21:09;3.40;;;2.50;;
75986;SDS011;64671;44.726;37.764;2022-12-10T06:22:13;5.03;;;2.75;;
75986;SDS011;64671;44.726;37.764;2022-12-10T06:23:14;3.47;;;2.90;;
75986;SDS011;64671;44.726;37.764;2022-12-10T06:24:15;4.20;;;2.70;;
75986;SDS011;64671;44.726;37.764;2022-12-10T06:25:17;3.33;;;2.45;;
75986;SDS011;64671;44.726;37.764;2022-12-10T06:26:20;3.40;;;3.05;;
75986;SDS011;64671;44.726;37.764;2022-12-10T06:27:25;3.65;;;2.75;;
75986;SDS011;64671;44.726;37.764;2022-12-10T06:28:27;3.08;;;2.30;;
75986;SDS011;64671;44.726;37.764;2022-12-10T06:29:28;3.70;;;2.92;;
75986;SDS011;64671;44.726;37.764;2022-12-10T06:30:30;3.13;;;2.80;;
75986;SDS011;64671;44.726;37.764;2022-12-10T06:31:32;3.50;;;2.58;;
75986;SDS011;64671;44.726;37.764;2022-12-10T06:32:34;3.53;;;2.80;;
75986;SDS011;64671;44.726;37.764;2022-12-10T06:33:35;3.90;;;2.83;;
75986;SDS011;64671;44.726;37.764;2022-12-10T06:34:37;4.97;;;2.83;;
75986;SDS011;64671;44.726;37.764;2022-12-10T06:35:38;2.65;;;2.13;;
75986;SDS011;64671;44.726;37.764;2022-12-10T06:36:39;2.92;;;2.60;;
75986;SDS011;64671;44.726;37.764;2022-12-10T06:37:41;3.67;;;2.88;;
75986;SDS011;64671;44.726;37.764;2022-12-10T06:38:42;3.63;;;3.10;;
75986;SDS011;64671;44.726;37.764;2022-12-10T06:39:44;5.00;;;2.95;;
75986;SDS011;64671;44.726;37.764;2022-12-10T06:40:46;3.28;;;2.72;;
75986;SDS011;64671;44.726;37.764;2022-12-10T06:41:49;4.63;;;2.97;;
75986;SDS011;64671;44.726;37.764;2022-12-10T06:42:50;4.00;;;2.80;;
75986;SDS011;64671;44.726;37.764;2022-12-10T06:43:53;3.22;;;2.88;;
75986;SDS011;64671;44.726;37.764;2022-12-10T06:44:54;3.30;;;2.75;;
75986;SDS011;64671;44.726;37.764;2022-12-10T06:45:55;3.30;;;2.97;;
75986;SDS011;64671;44.726;37.764;2022-12-10T06:46:57;2.72;;;2.53;;
75986;SDS011;64671;44.726;37.764;2022-12-10T06:48:00;3.28;;;2.90;;
75986;SDS011;64671;44.726;37.764;2022-12-10T06:50:23;3.13;;;2.60;;
75986;SDS011;64671;44.726;37.764;2022-12-10T06:52:13;3.72;;;2.65;;
75986;SDS011;64671;44.726;37.764;2022-12-10T06:53:15;3.83;;;2.65;;
75986;SDS011;64671;44.726;37.764;2022-12-10T06:54:16;3.35;;;2.70;;
75986;SDS011;64671;44.726;37.764;2022-12-10T06:56:19;3.33;;;2.50;;
75986;SDS011;64671;44.726;37.764;2022-12-10T06:57:20;3.97;;;2.78;;
75986;SDS011;64671;44.726;37.764;2022-12-10T06:58:22;3.20;;;2.80;;
75986;SDS011;64671;44.726;37.764;2022-12-10T06:59:23;4.15;;;2.60;;
75986;SDS011;64671;44.726;37.764;2022-12-10T07:00:24;3.30;;;2.70;;
75986;SDS011;64671;44.726;37.764;2022-12-10T07:01:26;3.40;;;2.72;;
75986;SDS011;64671;44.726;37.764;2022-12-10T07:02:27;4.72;;;3.03;;
75986;SDS011;64671;44.726;37.764;2022-12-10T07:03:29;3.10;;;2.78;;
75986;SDS011;64671;44.726;37.764;2022-12-10T07:04:30;4.00;;;3.10;;
75986;SDS011;64671;44.726;37.764;2022-12-10T07:05:32;3.85;;;3.20;;
75986;SDS011;64671;44.726;37.764;2022-12-10T07:06:33;3.95;;;3.20;;
75986;SDS011;64671;44.726;37.764;2022-12-10T07:07:35;3.92;;;2.90;;
75986;SDS011;64671;44.726;37.764;2022-12-10T07:09:25;3.53;;;2.92;;
75986;SDS011;64671;44.726;37.764;2022-12-10T07:11:27;3.80;;;3.42;;
75986;SDS011;64671;44.726;37.764;2022-12-10T07:13:19;4.57;;;3.75;;
75986;SDS011;64671;44.726;37.764;2022-12-10T07:14:20;4.43;;;3.40;;
75986;SDS011;64671;44.726;37.764;2022-12-10T07:15:21;6.68;;;4.35;;
75986;SDS011;64671;44.726;37.764;2022-12-10T07:16:28;6.03;;;4.47;;
75986;SDS011;64671;44.726;37.764;2022-12-10T07:17:31;5.78;;;4.53;;
75986;SDS011;64671;44.726;37.764;2022-12-10T07:19:33;5.97;;;4.30;;
75986;SDS011;64671;44.726;37.764;2022-12-10T07:20:35;5.65;;;4.05;;
75986;SDS011;64671;44.726;37.764;2022-12-10T07:21:36;4.40;;;3.70;;
75986;SDS011;64671;44.726;37.764;2022-12-10T07:22:40;6.82;;;4.45;;
75986;SDS011;64671;44.726;37.764;2022-12-10T07:24:37;4.40;;;4.00;;
75986;SDS011;64671;44.726;37.764;2022-12-10T07:25:39;5.45;;;4.35;;
75986;SDS011;64671;44.726;37.764;2022-12-10T07:26:41;5.78;;;4.22;;
75986;SDS011;64671;44.726;37.764;2022-12-10T07:27:43;4.38;;;3.80;;
75986;SDS011;64671;44.726;37.764;2022-12-10T07:28:44;5.25;;;4.00;;
75986;SDS011;64671;44.726;37.764;2022-12-10T07:29:46;6.28;;;3.85;;
75986;SDS011;64671;44.726;37.764;2022-12-10T07:30:49;6.90;;;4.50;;
75986;SDS011;64671;44.726;37.764;2022-12-10T07:32:52;5.68;;;4.10;;
75986;SDS011;64671;44.726;37.764;2022-12-10T07:34:55;4.90;;;4.10;;
75986;SDS011;64671;44.726;37.764;2022-12-10T07:35:56;5.43;;;3.88;;
75986;SDS011;64671;44.726;37.764;2022-12-10T07:36:58;5.38;;;4.13;;
75986;SDS011;64671;44.726;37.764;2022-12-10T07:37:59;7.18;;;4.22;;
75986;SDS011;64671;44.726;37.764;2022-12-10T07:39:01;12.32;;;4.07;;
75986;SDS011;64671;44.726;37.764;2022-12-10T07:40:05;6.15;;;5.00;;
75986;SDS011;64671;44.726;37.764;2022-12-10T07:41:11;7.70;;;4.72;;
75986;SDS011;64671;44.726;37.764;2022-12-10T07:42:13;5.85;;;4.38;;
75986;SDS011;64671;44.726;37.764;2022-12-10T07:43:14;5.93;;;5.00;;
75986;SDS011;64671;44.726;37.764;2022-12-10T07:44:16;4.38;;;3.97;;
75986;SDS011;64671;44.726;37.764;2022-12-10T07:45:19;5.03;;;4.18;;
75986;SDS011;64671;44.726;37.764;2022-12-10T07:46:21;4.95;;;3.90;;
75986;SDS011;64671;44.726;37.764;2022-12-10T07:47:25;5.75;;;4.20;;